Lincolnville, KS (66858)

2:45 AM CST on February 14, 2016 (GMT -0600)
Marion | | Change Station
CLOSE
Current Station
Personal Weather Station
Location: Marion, KS
Elevation: 1371 ft
Nearby Weather Stations

Elev 1371 ft 38.35 °N, 97.01 °W | Updated 13 minutes ago

Partly Cloudy
Partly Cloudy
23.0 °F
Feels Like 19 °F
N
3.2
Wind Variable Wind from SE

Today
High -- | Low -- °F
--% Chance of Precip.
Yesterday
High -- | Low -- °F
Precip. -- in
Pressure 30.03 in
Visibility 10.0 miles
Clouds Overcast 3300 ft
Windchill 19 °F
Dew Point 10 °F
Humidity 58%
Rainfall 0.00 in
Snow Depth Not available.
7:20 AM 6:04 PM
Waxing Crescent, 39% visible
METAR KEWK 140835Z AUTO 02009KT 10SM OVC033 M03/M13 A3003 RMK AO1
Pressure 30.03 in
Visibility 10.0 miles
Clouds Overcast 3300 ft
Windchill 19 °F
Dew Point 10 °F
Humidity 58%
Rainfall 0.00 in
Snow Depth Not available.
7:20 AM 6:04 PM
Waxing Crescent, 39% visible
METAR KEWK 140835Z AUTO 02009KT 10SM OVC033 M03/M13 A3003 RMK AO1

10-Day Weather Forecast

Almanac

Astronomy

Feb. 14, 2016 Rise Set
Actual Time
Civil Twilight
Nautical Twilight
Astronomical Twilight
Moon
Length of Visible Light
Length of Day
Tomorrow will be .
, % of the Moon is Illuminated

Today's Extremes

State Highs State Lows

Community

WunderPhotos

Upload Photos

1,892,763 photos uploaded!

WunderBlog® & News

Nearby

Air Quality

  Air Quality AQ Index Pollutant
Not available.

Snow Depth

Station Depth Elevation

Earthquake Activity

City Distance Mag. Time & Date
Minimum magnitude displayed is 2.5.

Coastal Water Temperatures

Place Temperature

Stations

Nearby Weather Stations

Station Location Temp. Windchill Dew Point Humidity Wind Precip. Elev Updated Type
                   

Watches & Warnings

There are currently no watches in effect.